createdAt,value
2019-05-20T00:01:01.315Z,18.93
2019-05-20T00:06:08.387Z,19.13
2019-05-20T00:08:38.903Z,16.27
2019-05-20T00:11:07.577Z,22.73
2019-05-20T00:13:36.682Z,15.73
2019-05-20T00:16:05.674Z,18.83
2019-05-20T00:18:34.312Z,18.43
2019-05-20T00:21:03.453Z,20.67
2019-05-20T00:23:32.960Z,18.90
2019-05-20T00:26:01.608Z,18.07
2019-05-20T00:31:10.497Z,19.47
2019-05-20T00:33:40.375Z,18.20
2019-05-20T00:36:09.549Z,19.23
2019-05-20T00:38:38.657Z,19.63
2019-05-20T00:41:07.709Z,23.07
2019-05-20T00:43:36.657Z,21.90
2019-05-20T00:46:05.959Z,20.77
2019-05-20T00:48:34.638Z,22.87
2019-05-20T00:51:03.299Z,25.30
2019-05-20T00:53:31.911Z,21.13
2019-05-20T00:56:00.566Z,23.17
2019-05-20T00:58:29.587Z,22.57
2019-05-20T01:00:58.204Z,20.93
2019-05-20T01:03:26.832Z,24.43
2019-05-20T01:08:34.410Z,22.07
2019-05-20T01:11:03.767Z,21.07
2019-05-20T01:13:32.375Z,26.80
2019-05-20T01:16:00.931Z,24.33
2019-05-20T01:18:29.653Z,26.10
2019-05-20T01:23:38.645Z,27.80
2019-05-20T01:26:07.252Z,29.87
2019-05-20T01:28:36.273Z,33.83
2019-05-20T01:31:04.961Z,26.80
2019-05-20T01:33:34.239Z,32.20
2019-05-20T01:36:02.863Z,27.17
2019-05-20T01:38:32.231Z,28.27
2019-05-20T01:43:38.541Z,27.47
2019-05-20T01:46:07.529Z,27.50
2019-05-20T01:48:36.125Z,31.10
2019-05-20T01:51:04.818Z,32.17
2019-05-20T01:53:33.434Z,28.97
2019-05-20T01:58:39.871Z,25.37
2019-05-20T02:03:46.398Z,28.63
2019-05-20T02:08:54.873Z,27.10
2019-05-20T02:11:23.538Z,33.13
2019-05-20T02:13:56.523Z,30.53
2019-05-20T02:16:25.543Z,26.47
2019-05-20T02:18:54.167Z,33.23
2019-05-20T02:21:22.873Z,27.87
2019-05-20T02:23:51.908Z,32.80
2019-05-20T02:26:20.520Z,28.00
2019-05-20T02:28:49.487Z,30.03
2019-05-20T02:31:18.583Z,33.77
2019-05-20T02:33:52.399Z,29.27
2019-05-20T02:36:18.204Z,31.50
2019-05-20T02:38:46.850Z,27.97
2019-05-20T02:41:15.478Z,30.57
2019-05-20T02:43:44.228Z,28.33
2019-05-20T02:48:51.257Z,30.97
2019-05-20T02:51:30.736Z,30.50
2019-05-20T02:56:40.482Z,29.90
2019-05-20T02:59:09.082Z,32.83
2019-05-20T03:04:15.589Z,29.93
2019-05-20T03:06:44.210Z,31.30
2019-05-20T03:11:58.635Z,29.03
2019-05-20T03:14:27.284Z,32.67
2019-05-20T03:19:34.868Z,31.40
2019-05-20T03:22:03.888Z,28.80
2019-05-20T03:24:32.528Z,31.47
2019-05-20T03:27:01.963Z,28.60
2019-05-20T03:29:30.607Z,31.63
2019-05-20T03:31:59.611Z,26.10
2019-05-20T03:34:45.664Z,31.80
2019-05-20T03:36:59.079Z,34.07
2019-05-20T03:39:27.820Z,27.57
2019-05-20T03:41:56.680Z,32.00
2019-05-20T03:44:26.706Z,34.87
2019-05-20T03:46:55.654Z,31.63
2019-05-20T03:49:25.185Z,32.90
2019-05-20T03:51:54.246Z,29.97
2019-05-20T03:57:01.343Z,31.03
2019-05-20T03:59:29.968Z,29.07
2019-05-20T04:01:58.571Z,31.77
2019-05-20T04:07:04.706Z,32.50
2019-05-20T04:09:33.684Z,27.23
2019-05-20T04:12:04.226Z,30.47
2019-05-20T04:14:32.898Z,28.27
2019-05-20T04:19:39.006Z,29.60
2019-05-20T04:22:08.071Z,35.73
2019-05-20T04:24:36.786Z,33.37
2019-05-20T04:29:43.376Z,31.97
2019-05-20T04:32:12.346Z,29.77
2019-05-20T04:34:41.036Z,30.83
2019-05-20T04:37:10.130Z,26.20
2019-05-20T04:39:39.035Z,34.57
2019-05-20T04:44:47.434Z,31.80
2019-05-20T04:47:16.550Z,32.10
2019-05-20T04:49:45.684Z,29.93
2019-05-20T04:52:15.051Z,29.43
2019-05-20T04:54:44.384Z,30.07
2019-05-20T04:57:13.376Z,30.23
2019-05-20T04:59:42.051Z,31.90
2019-05-20T05:02:11.105Z,30.67
2019-05-20T05:07:17.694Z,31.63
2019-05-20T05:09:46.973Z,29.97
2019-05-20T05:12:15.994Z,34.03
2019-05-20T05:14:45.000Z,33.33
2019-05-20T05:19:53.113Z,36.63
2019-05-20T05:22:22.162Z,33.20
2019-05-20T05:24:51.037Z,33.93
2019-05-20T05:27:19.822Z,37.50
2019-05-20T05:29:48.462Z,39.37
2019-05-20T05:32:37.025Z,36.80
2019-05-20T05:37:43.706Z,34.97
2019-05-20T05:40:14.113Z,36.30
2019-05-20T05:42:43.117Z,40.27
2019-05-20T05:45:12.445Z,35.47
2019-05-20T05:47:41.790Z,35.10
2019-05-20T05:50:10.711Z,34.27
2019-05-20T05:52:43.632Z,35.47
2019-05-20T05:55:12.699Z,35.77
2019-05-20T06:00:27.887Z,39.13
2019-05-20T06:02:56.841Z,33.07
2019-05-20T06:08:10.211Z,35.73
2019-05-20T06:10:39.531Z,37.57
2019-05-20T06:15:48.467Z,38.47
2019-05-20T06:18:17.482Z,39.07
2019-05-20T06:20:46.210Z,33.13
2019-05-20T06:23:14.948Z,31.63
2019-05-20T06:28:21.104Z,33.07
2019-05-20T06:33:27.585Z,33.23
2019-05-20T06:38:59.350Z,32.30
2019-05-20T06:44:07.604Z,28.87
2019-05-20T06:46:36.270Z,34.87
2019-05-20T06:49:05.310Z,33.47
2019-05-20T06:51:34.048Z,35.93
2019-05-20T06:54:02.695Z,30.40
2019-05-20T06:56:31.711Z,29.70
2019-05-20T06:59:00.804Z,30.67
2019-05-20T07:01:29.711Z,31.00
2019-05-20T07:03:58.369Z,30.40
2019-05-20T07:09:08.327Z,31.23
2019-05-20T07:11:37.795Z,37.27
2019-05-20T07:14:06.484Z,30.80
2019-05-20T07:16:35.957Z,35.03
2019-05-20T07:19:05.088Z,34.30
2019-05-20T07:21:33.765Z,32.17
2019-05-20T07:26:42.370Z,30.10
2019-05-20T07:29:11.921Z,34.70
2019-05-20T07:31:40.733Z,32.53
2019-05-20T07:34:09.892Z,29.83
2019-05-20T07:36:38.491Z,32.40
2019-05-20T07:39:07.501Z,31.07
2019-05-20T07:41:36.234Z,33.10
2019-05-20T07:44:05.842Z,31.90
2019-05-20T07:49:15.297Z,28.13
2019-05-20T07:51:45.693Z,36.50
2019-05-20T07:54:15.798Z,33.53
2019-05-20T07:59:34.659Z,30.73
2019-05-20T08:02:03.765Z,28.60
2019-05-20T08:04:32.445Z,35.70
2019-05-20T08:09:45.319Z,34.10
2019-05-20T08:12:09.459Z,32.93
2019-05-20T08:17:16.146Z,36.03
2019-05-20T08:19:45.234Z,33.23
2019-05-20T08:22:13.888Z,36.07
2019-05-20T08:24:43.006Z,34.73
2019-05-20T08:27:11.706Z,32.07
2019-05-20T08:29:41.325Z,34.20
2019-05-20T08:34:50.944Z,32.53
2019-05-20T08:37:19.958Z,29.93
2019-05-20T08:39:49.268Z,27.97
2019-05-20T08:42:18.630Z,32.47
2019-05-20T08:44:47.763Z,27.00
2019-05-20T08:47:16.404Z,25.47
2019-05-20T08:52:24.694Z,30.10
2019-05-20T08:54:54.379Z,29.10
2019-05-20T08:57:23.719Z,28.20
2019-05-20T08:59:52.880Z,32.27
2019-05-20T09:05:02.691Z,30.17
2019-05-20T09:10:09.830Z,30.37
2019-05-20T09:15:22.043Z,27.90
2019-05-20T09:20:29.881Z,22.97
2019-05-20T09:23:02.537Z,27.23
2019-05-20T09:25:30.934Z,28.20
2019-05-20T09:28:00.921Z,19.67
2019-05-20T09:30:30.969Z,23.35
2019-05-20T09:32:59.722Z,23.80
2019-05-20T09:35:29.368Z,19.07
2019-05-20T09:40:45.658Z,25.25
2019-05-20T09:43:14.616Z,19.77
2019-05-20T09:45:43.279Z,23.52
2019-05-20T09:48:13.199Z,19.55
2019-05-20T09:50:42.048Z,20.68
2019-05-20T09:55:48.502Z,19.95
2019-05-20T09:58:17.384Z,19.80
2019-05-20T10:00:46.429Z,15.08
2019-05-20T10:03:15.259Z,18.35
2019-05-20T10:05:44.523Z,18.50
2019-05-20T10:08:13.761Z,21.30
2019-05-20T10:13:22.463Z,18.73
2019-05-20T10:15:51.726Z,16.80
2019-05-20T10:21:01.834Z,15.68
2019-05-20T10:23:31.327Z,18.27
2019-05-20T10:26:00.289Z,13.50
2019-05-20T10:31:06.732Z,15.20
2019-05-20T10:33:37.164Z,13.93
2019-05-20T10:36:05.921Z,16.12
2019-05-20T10:41:15.160Z,12.50
2019-05-20T10:43:44.267Z,9.15
2019-05-20T10:46:12.928Z,12.28
2019-05-20T10:48:41.619Z,11.68
2019-05-20T10:53:54.066Z,12.73
2019-05-20T10:56:22.878Z,12.78
2019-05-20T10:58:51.766Z,14.53
2019-05-20T11:01:20.883Z,13.95
2019-05-20T11:06:28.130Z,14.15
2019-05-20T11:09:11.723Z,13.60
2019-05-20T11:11:27.860Z,12.53
2019-05-20T11:16:35.302Z,11.12
2019-05-20T11:19:04.255Z,9.30
2019-05-20T11:21:34.180Z,12.75
2019-05-20T11:24:03.087Z,9.73
2019-05-20T11:29:11.172Z,8.80
2019-05-20T11:31:40.443Z,9.05
2019-05-20T11:34:09.124Z,8.35
2019-05-20T11:36:37.908Z,8.65
2019-05-20T11:41:53.522Z,9.63
2019-05-20T11:44:17.483Z,9.55
2019-05-20T11:46:46.549Z,9.28
2019-05-20T11:49:15.658Z,8.38
2019-05-20T11:51:45.047Z,10.82
2019-05-20T11:54:14.136Z,8.58
2019-05-20T11:56:43.288Z,10.00
2019-05-20T12:01:53.157Z,10.20
2019-05-20T12:04:21.884Z,10.13
2019-05-20T12:06:50.616Z,11.55
2019-05-20T12:09:19.666Z,8.08
2019-05-20T12:14:25.853Z,8.30
2019-05-20T12:16:55.346Z,7.58
2019-05-20T12:19:24.105Z,8.70
2019-05-20T12:24:36.260Z,9.23
2019-05-20T12:27:05.320Z,7.85
2019-05-20T12:32:12.351Z,7.75
2019-05-20T12:34:41.127Z,9.25
2019-05-20T12:37:10.114Z,6.28
2019-05-20T12:39:38.823Z,7.95
2019-05-20T12:42:07.920Z,9.38
2019-05-20T12:44:36.588Z,9.85
2019-05-20T12:49:52.703Z,10.40
2019-05-20T12:52:21.444Z,11.68
2019-05-20T12:55:05.946Z,10.65
2019-05-20T12:57:20.593Z,10.63
2019-05-20T12:59:49.775Z,9.73
2019-05-20T13:02:19.001Z,9.53
2019-05-20T13:04:48.713Z,7.78
2019-05-20T13:07:17.482Z,8.80
2019-05-20T13:09:46.796Z,12.15
2019-05-20T13:12:16.580Z,7.42
2019-05-20T13:14:45.201Z,10.50
2019-05-20T13:17:14.159Z,8.10
2019-05-20T13:19:43.010Z,8.75
2019-05-20T13:22:12.129Z,7.60
2019-05-20T13:24:41.011Z,9.35
2019-05-20T13:27:09.961Z,9.20
2019-05-20T13:29:39.154Z,8.28
2019-05-20T13:32:08.157Z,11.57
2019-05-20T13:37:21.974Z,8.93
2019-05-20T13:42:35.246Z,8.83
2019-05-20T13:47:43.248Z,7.05
2019-05-20T13:50:12.475Z,6.45
2019-05-20T13:55:20.547Z,6.62
2019-05-20T13:57:49.988Z,7.42
2019-05-20T14:00:20.719Z,7.15
2019-05-20T14:05:28.750Z,8.20
2019-05-20T14:10:39.603Z,9.10
2019-05-20T14:13:08.612Z,8.18
2019-05-20T14:15:37.284Z,10.30
2019-05-20T14:18:06.575Z,8.28
2019-05-20T14:20:35.258Z,10.32
2019-05-20T14:23:04.304Z,7.65
2019-05-20T14:28:14.229Z,10.38
2019-05-20T14:33:27.972Z,9.70
2019-05-20T14:35:57.116Z,8.88
2019-05-20T14:38:26.280Z,6.80
2019-05-20T14:43:42.325Z,9.68
2019-05-20T14:46:11.023Z,7.05
2019-05-20T14:48:40.202Z,10.80
2019-05-20T14:51:09.221Z,12.88
2019-05-20T14:53:38.325Z,7.58
2019-05-20T14:56:07.015Z,9.60
2019-05-20T14:58:35.945Z,9.03
2019-05-20T15:01:04.704Z,9.45
2019-05-20T15:03:33.415Z,12.67
2019-05-20T15:06:02.105Z,8.90
2019-05-20T15:08:34.397Z,9.15
2019-05-20T15:11:02.692Z,10.63
2019-05-20T15:16:08.949Z,9.37
2019-05-20T15:21:16.288Z,10.93
2019-05-20T15:26:32.724Z,15.08
2019-05-20T15:29:01.345Z,11.53
2019-05-20T15:31:30.753Z,14.10
2019-05-20T15:33:59.888Z,11.53
2019-05-20T15:36:28.957Z,11.57
2019-05-20T15:38:57.998Z,12.20
2019-05-20T15:41:26.804Z,13.07
2019-05-20T15:46:36.551Z,14.27
2019-05-20T15:49:05.222Z,14.50
2019-05-20T15:51:34.176Z,12.80
2019-05-20T15:56:41.184Z,12.97
2019-05-20T15:59:10.142Z,15.67
2019-05-20T16:04:16.391Z,13.57
2019-05-20T16:06:45.169Z,12.63
2019-05-20T16:11:57.447Z,13.83
2019-05-20T16:14:26.981Z,15.30
2019-05-20T16:16:55.627Z,13.17
2019-05-20T16:19:24.452Z,12.13
2019-05-20T16:21:53.343Z,13.33
2019-05-20T16:24:21.977Z,14.50
2019-05-20T16:26:50.713Z,12.67
2019-05-20T16:29:19.378Z,14.97
2019-05-20T16:31:48.009Z,15.80
2019-05-20T16:36:54.273Z,14.87
2019-05-20T16:39:23.319Z,13.27
2019-05-20T16:41:52.385Z,15.97
2019-05-20T16:44:21.078Z,13.87
2019-05-20T16:49:27.290Z,17.00
2019-05-20T16:51:56.310Z,14.97
2019-05-20T16:57:05.247Z,17.63
2019-05-20T16:59:34.655Z,11.90
2019-05-20T17:02:03.755Z,16.67
2019-05-20T17:07:12.593Z,12.23
2019-05-20T17:09:41.830Z,12.90
2019-05-20T17:12:11.022Z,12.93
2019-05-20T17:14:39.683Z,11.90
2019-05-20T17:17:08.485Z,11.87
2019-05-20T17:19:37.310Z,18.03
2019-05-20T17:22:06.048Z,14.23
2019-05-20T17:24:34.847Z,12.43
2019-05-20T17:27:03.494Z,11.53
2019-05-20T17:29:32.582Z,12.23
2019-05-20T17:32:01.657Z,12.13
2019-05-20T17:34:30.642Z,12.30
2019-05-20T17:36:59.313Z,13.17
2019-05-20T17:39:28.104Z,13.73
2019-05-20T17:41:57.168Z,11.73
2019-05-20T17:47:03.835Z,11.53
2019-05-20T17:49:33.050Z,11.70
2019-05-20T17:54:39.147Z,11.67
2019-05-20T17:57:07.924Z,12.60
2019-05-20T17:59:36.987Z,10.97
2019-05-20T18:02:07.965Z,11.93
2019-05-20T18:07:16.129Z,14.50
2019-05-20T18:09:48.354Z,14.27
2019-05-20T18:12:17.495Z,14.73
2019-05-20T18:14:51.346Z,15.87
2019-05-20T18:17:20.448Z,14.83
2019-05-20T18:19:49.170Z,15.73
2019-05-20T18:22:17.998Z,17.67
2019-05-20T18:27:25.026Z,21.30
2019-05-20T18:29:54.195Z,17.27
2019-05-20T18:32:23.575Z,15.73
2019-05-20T18:34:52.873Z,18.67
2019-05-20T18:37:21.915Z,21.47
2019-05-20T18:39:51.528Z,18.70
2019-05-20T18:42:20.334Z,20.40
2019-05-20T18:44:48.994Z,19.93
2019-05-20T18:47:18.187Z,20.97
2019-05-20T18:52:24.773Z,17.80
2019-05-20T18:54:53.979Z,26.57
2019-05-20T18:57:22.972Z,21.07
2019-05-20T18:59:52.677Z,18.60
2019-05-20T19:02:21.341Z,21.73
2019-05-20T19:04:50.037Z,23.60
2019-05-20T19:07:19.358Z,20.13
2019-05-20T19:12:25.727Z,23.50
2019-05-20T19:17:37.888Z,21.90
2019-05-20T19:22:44.275Z,25.90
2019-05-20T19:27:50.484Z,24.80
2019-05-20T19:33:05.825Z,22.03
2019-05-20T19:35:35.424Z,22.97
2019-05-20T19:38:04.116Z,24.43
2019-05-20T19:40:33.154Z,23.17
2019-05-20T19:43:01.998Z,24.20
2019-05-20T19:45:31.062Z,23.17
2019-05-20T19:50:39.279Z,22.20
2019-05-20T19:53:08.042Z,25.13
2019-05-20T19:55:36.640Z,27.27
2019-05-20T19:58:05.352Z,23.37
2019-05-20T20:00:34.686Z,21.70
2019-05-20T20:03:04.038Z,21.33
2019-05-20T20:08:32.140Z,22.50
2019-05-20T20:11:00.793Z,22.90
2019-05-20T20:13:29.396Z,20.97
2019-05-20T20:18:36.897Z,24.17
2019-05-20T20:21:05.873Z,21.93
2019-05-20T20:26:14.971Z,23.00
2019-05-20T20:28:43.604Z,24.67
2019-05-20T20:31:12.564Z,23.03
2019-05-20T20:33:41.333Z,21.33
2019-05-20T20:36:09.965Z,29.93
2019-05-20T20:38:39.901Z,23.20
2019-05-20T20:41:09.473Z,25.20
2019-05-20T20:43:38.154Z,24.80
2019-05-20T20:46:06.758Z,23.83
2019-05-20T20:48:35.553Z,27.63
2019-05-20T20:51:04.660Z,24.53
2019-05-20T20:53:33.635Z,22.53
2019-05-20T20:56:02.374Z,26.37
2019-05-20T20:58:31.027Z,26.67
2019-05-20T21:00:59.637Z,26.93
2019-05-20T21:03:28.425Z,26.30
2019-05-20T21:05:57.727Z,28.30
2019-05-20T21:08:26.607Z,24.10
2019-05-20T21:10:55.680Z,27.40
2019-05-20T21:16:01.827Z,28.43
2019-05-20T21:18:30.850Z,25.23
2019-05-20T21:20:59.484Z,27.87
2019-05-20T21:26:06.327Z,26.40
2019-05-20T21:28:35.291Z,27.57
2019-05-20T21:31:03.904Z,24.13
2019-05-20T21:36:10.185Z,25.13
2019-05-20T21:38:38.857Z,26.13
2019-05-20T21:43:45.614Z,22.67
2019-05-20T21:46:14.228Z,23.93
2019-05-20T21:48:42.960Z,24.47
2019-05-20T21:51:11.609Z,23.73
2019-05-20T21:53:41.328Z,23.50
2019-05-20T21:58:47.866Z,20.23
2019-05-20T22:01:16.749Z,20.63
2019-05-20T22:03:45.733Z,21.23
2019-05-20T22:08:52.289Z,22.33
2019-05-20T22:11:20.902Z,22.17
2019-05-20T22:13:49.976Z,20.77
2019-05-20T22:18:56.342Z,23.43
2019-05-20T22:21:29.445Z,23.70
2019-05-20T22:24:00.591Z,22.97
2019-05-20T22:26:29.201Z,21.33
2019-05-20T22:28:58.457Z,21.23
2019-05-20T22:31:27.198Z,21.43
2019-05-20T22:33:55.818Z,22.57
2019-05-20T22:39:02.782Z,26.07
2019-05-20T22:41:31.746Z,22.97
2019-05-20T22:44:00.372Z,27.30
2019-05-20T22:46:29.388Z,28.07
2019-05-20T22:48:58.412Z,25.43
2019-05-20T22:51:27.337Z,30.80
2019-05-20T22:53:56.402Z,28.23
2019-05-20T22:56:25.041Z,26.77
2019-05-20T22:58:54.015Z,24.43
2019-05-20T23:01:22.750Z,28.03
2019-05-20T23:06:28.905Z,26.43
2019-05-20T23:08:57.853Z,25.40
2019-05-20T23:11:26.566Z,28.57
2019-05-20T23:13:55.231Z,23.67
2019-05-20T23:16:24.575Z,30.23
2019-05-20T23:21:30.240Z,26.87
2019-05-20T23:26:44.720Z,28.53
2019-05-20T23:29:14.136Z,26.73
2019-05-20T23:31:42.861Z,35.60
2019-05-20T23:36:48.547Z,26.77
2019-05-20T23:39:17.989Z,35.57
2019-05-20T23:44:24.877Z,29.10
2019-05-20T23:46:53.852Z,31.20
2019-05-20T23:49:22.628Z,32.13
2019-05-20T23:51:51.317Z,34.40
2019-05-20T23:56:59.198Z,33.27
